sensor_id;sensor_type;location;lat;lon;timestamp;pressure;altitude;pressure_sealevel;temperature;humidity
64886;BME280;51514;52.206;5.114;2023-04-09T00:03:27;102704.00;;;9.84;93.12
64886;BME280;51514;52.206;5.114;2023-04-09T00:05:53;102705.19;;;9.93;92.55
64886;BME280;51514;52.206;5.114;2023-04-09T00:08:19;102709.69;;;10.05;91.94
64886;BME280;51514;52.206;5.114;2023-04-09T00:10:44;102708.47;;;10.09;91.91
64886;BME280;51514;52.206;5.114;2023-04-09T00:13:09;102707.31;;;10.13;91.47
64886;BME280;51514;52.206;5.114;2023-04-09T00:15:35;102711.72;;;10.14;91.25
64886;BME280;51514;52.206;5.114;2023-04-09T00:18:01;102709.03;;;10.14;90.91
64886;BME280;51514;52.206;5.114;2023-04-09T00:20:26;102706.53;;;10.11;90.88
64886;BME280;51514;52.206;5.114;2023-04-09T00:22:52;102701.16;;;10.11;90.85
64886;BME280;51514;52.206;5.114;2023-04-09T00:25:18;102697.50;;;10.12;90.85
64886;BME280;51514;52.206;5.114;2023-04-09T00:27:44;102694.91;;;10.10;90.80
64886;BME280;51514;52.206;5.114;2023-04-09T00:30:09;102689.28;;;10.13;91.00
64886;BME280;51514;52.206;5.114;2023-04-09T00:32:35;102694.47;;;10.16;90.73
64886;BME280;51514;52.206;5.114;2023-04-09T00:35:00;102692.00;;;10.13;90.28
64886;BME280;51514;52.206;5.114;2023-04-09T00:37:26;102689.09;;;10.16;90.46
64886;BME280;51514;52.206;5.114;2023-04-09T00:39:51;102686.19;;;10.19;90.00
64886;BME280;51514;52.206;5.114;2023-04-09T00:42:16;102678.94;;;10.20;89.68
64886;BME280;51514;52.206;5.114;2023-04-09T00:44:42;102676.25;;;10.20;89.70
64886;BME280;51514;52.206;5.114;2023-04-09T00:47:07;102674.75;;;10.16;89.54
64886;BME280;51514;52.206;5.114;2023-04-09T00:49:32;102684.44;;;10.18;89.79
64886;BME280;51514;52.206;5.114;2023-04-09T00:51:58;102682.28;;;10.11;89.91
64886;BME280;51514;52.206;5.114;2023-04-09T00:54:23;102687.03;;;10.07;89.92
64886;BME280;51514;52.206;5.114;2023-04-09T00:56:49;102678.06;;;10.07;90.01
64886;BME280;51514;52.206;5.114;2023-04-09T00:59:15;102679.06;;;10.06;90.05
64886;BME280;51514;52.206;5.114;2023-04-09T01:01:41;102678.63;;;10.12;89.78
64886;BME280;51514;52.206;5.114;2023-04-09T01:04:06;102669.47;;;10.14;89.72
64886;BME280;51514;52.206;5.114;2023-04-09T01:06:44;102673.56;;;10.20;89.58
64886;BME280;51514;52.206;5.114;2023-04-09T01:12:20;102660.84;;;10.22;88.97
64886;BME280;51514;52.206;5.114;2023-04-09T01:17:19;102668.81;;;10.11;88.33
64886;BME280;51514;52.206;5.114;2023-04-09T01:20:07;102663.41;;;10.11;88.11
64886;BME280;51514;52.206;5.114;2023-04-09T01:25:32;102660.94;;;10.08;88.73
64886;BME280;51514;52.206;5.114;2023-04-09T01:30:42;102666.44;;;10.19;88.34
64886;BME280;51514;52.206;5.114;2023-04-09T01:33:12;102662.97;;;10.17;87.78
64886;BME280;51514;52.206;5.114;2023-04-09T01:35:40;102658.25;;;10.20;87.50
64886;BME280;51514;52.206;5.114;2023-04-09T01:38:07;102664.50;;;10.21;87.76
64886;BME280;51514;52.206;5.114;2023-04-09T01:40:34;102664.06;;;10.27;87.79
64886;BME280;51514;52.206;5.114;2023-04-09T01:43:00;102665.75;;;10.28;87.49
64886;BME280;51514;52.206;5.114;2023-04-09T01:45:26;102660.38;;;10.28;87.52
64886;BME280;51514;52.206;5.114;2023-04-09T01:47:51;102669.47;;;10.27;87.39
64886;BME280;51514;52.206;5.114;2023-04-09T01:50:18;102663.59;;;10.33;87.59
64886;BME280;51514;52.206;5.114;2023-04-09T01:52:44;102673.41;;;10.34;87.09
64886;BME280;51514;52.206;5.114;2023-04-09T01:55:09;102668.78;;;10.36;86.79
64886;BME280;51514;52.206;5.114;2023-04-09T01:57:34;102662.06;;;10.42;87.30
64886;BME280;51514;52.206;5.114;2023-04-09T02:00:00;102667.03;;;10.48;87.25
64886;BME280;51514;52.206;5.114;2023-04-09T02:02:35;102664.53;;;10.45;86.93
64886;BME280;51514;52.206;5.114;2023-04-09T02:05:06;102662.50;;;10.48;87.12
64886;BME280;51514;52.206;5.114;2023-04-09T02:07:43;102668.75;;;10.49;86.94
64886;BME280;51514;52.206;5.114;2023-04-09T02:10:12;102658.06;;;10.47;86.53
64886;BME280;51514;52.206;5.114;2023-04-09T02:12:39;102661.63;;;10.48;86.19
64886;BME280;51514;52.206;5.114;2023-04-09T02:15:07;102659.03;;;10.46;86.43
64886;BME280;51514;52.206;5.114;2023-04-09T02:17:32;102657.97;;;10.49;86.46
64886;BME280;51514;52.206;5.114;2023-04-09T02:19:58;102662.13;;;10.53;86.47
64886;BME280;51514;52.206;5.114;2023-04-09T02:22:23;102663.53;;;10.58;86.19
64886;BME280;51514;52.206;5.114;2023-04-09T02:24:48;102661.81;;;10.57;85.89
64886;BME280;51514;52.206;5.114;2023-04-09T02:27:14;102658.13;;;10.58;86.13
64886;BME280;51514;52.206;5.114;2023-04-09T02:29:39;102656.28;;;10.59;85.79
64886;BME280;51514;52.206;5.114;2023-04-09T02:32:05;102662.56;;;10.59;85.77
64886;BME280;51514;52.206;5.114;2023-04-09T02:34:31;102648.81;;;10.63;85.75
64886;BME280;51514;52.206;5.114;2023-04-09T02:36:56;102650.75;;;10.60;85.73
64886;BME280;51514;52.206;5.114;2023-04-09T02:39:22;102649.19;;;10.58;85.81
64886;BME280;51514;52.206;5.114;2023-04-09T02:41:47;102643.03;;;10.56;85.80
64886;BME280;51514;52.206;5.114;2023-04-09T02:44:12;102645.72;;;10.56;86.08
64886;BME280;51514;52.206;5.114;2023-04-09T02:46:38;102639.97;;;10.60;85.97
64886;BME280;51514;52.206;5.114;2023-04-09T02:49:03;102650.03;;;10.58;85.75
64886;BME280;51514;52.206;5.114;2023-04-09T02:51:30;102642.66;;;10.60;85.72
64886;BME280;51514;52.206;5.114;2023-04-09T02:53:55;102642.66;;;10.60;85.42
64886;BME280;51514;52.206;5.114;2023-04-09T02:56:20;102636.31;;;10.61;85.41
64886;BME280;51514;52.206;5.114;2023-04-09T02:58:46;102633.50;;;10.63;85.14
64886;BME280;51514;52.206;5.114;2023-04-09T03:01:13;102638.56;;;10.68;84.89
64886;BME280;51514;52.206;5.114;2023-04-09T03:03:38;102626.78;;;10.69;85.09
64886;BME280;51514;52.206;5.114;2023-04-09T03:06:06;102627.66;;;10.69;85.50
64886;BME280;51514;52.206;5.114;2023-04-09T03:08:31;102629.97;;;10.74;85.26
64886;BME280;51514;52.206;5.114;2023-04-09T03:10:56;102624.84;;;10.71;85.11
64886;BME280;51514;52.206;5.114;2023-04-09T03:13:22;102623.13;;;10.70;84.69
64886;BME280;51514;52.206;5.114;2023-04-09T03:15:51;102616.75;;;10.71;85.24
64886;BME280;51514;52.206;5.114;2023-04-09T03:18:17;102630.72;;;10.76;85.08
64886;BME280;51514;52.206;5.114;2023-04-09T03:20:42;102620.91;;;10.75;85.01
64886;BME280;51514;52.206;5.114;2023-04-09T03:23:07;102616.38;;;10.75;84.78
64886;BME280;51514;52.206;5.114;2023-04-09T03:25:33;102615.75;;;10.72;84.86
64886;BME280;51514;52.206;5.114;2023-04-09T03:27:58;102613.53;;;10.66;85.13
64886;BME280;51514;52.206;5.114;2023-04-09T03:30:23;102626.25;;;10.64;85.12
64886;BME280;51514;52.206;5.114;2023-04-09T03:32:49;102620.38;;;10.58;85.50
64886;BME280;51514;52.206;5.114;2023-04-09T03:35:14;102620.22;;;10.60;85.81
64886;BME280;51514;52.206;5.114;2023-04-09T03:37:39;102614.97;;;10.58;85.67
64886;BME280;51514;52.206;5.114;2023-04-09T03:40:05;102608.47;;;10.61;85.72
64886;BME280;51514;52.206;5.114;2023-04-09T03:42:31;102619.72;;;10.55;85.74
64886;BME280;51514;52.206;5.114;2023-04-09T03:44:56;102609.53;;;10.47;85.52
64886;BME280;51514;52.206;5.114;2023-04-09T03:47:21;102612.22;;;10.47;85.84
64886;BME280;51514;52.206;5.114;2023-04-09T03:49:47;102613.09;;;10.48;85.66
64886;BME280;51514;52.206;5.114;2023-04-09T03:52:12;102605.09;;;10.46;85.67
64886;BME280;51514;52.206;5.114;2023-04-09T03:54:37;102609.41;;;10.49;85.44
64886;BME280;51514;52.206;5.114;2023-04-09T03:57:02;102602.69;;;10.54;85.56
64886;BME280;51514;52.206;5.114;2023-04-09T03:59:28;102604.63;;;10.52;85.23
64886;BME280;51514;52.206;5.114;2023-04-09T04:01:54;102599.22;;;10.52;85.15
64886;BME280;51514;52.206;5.114;2023-04-09T04:04:19;102599.88;;;10.56;85.06
64886;BME280;51514;52.206;5.114;2023-04-09T04:06:44;102591.66;;;10.57;85.23
64886;BME280;51514;52.206;5.114;2023-04-09T04:09:10;102593.94;;;10.51;85.34
64886;BME280;51514;52.206;5.114;2023-04-09T04:11:35;102598.63;;;10.49;85.74
64886;BME280;51514;52.206;5.114;2023-04-09T04:14:00;102596.44;;;10.54;85.48
64886;BME280;51514;52.206;5.114;2023-04-09T04:16:26;102586.97;;;10.48;85.37
64886;BME280;51514;52.206;5.114;2023-04-09T04:18:51;102580.84;;;10.46;85.13
64886;BME280;51514;52.206;5.114;2023-04-09T04:21:16;102592.81;;;10.42;85.94
64886;BME280;51514;52.206;5.114;2023-04-09T04:23:42;102584.63;;;10.44;85.78
64886;BME280;51514;52.206;5.114;2023-04-09T04:26:08;102588.75;;;10.37;85.65
64886;BME280;51514;52.206;5.114;2023-04-09T04:28:35;102586.56;;;10.42;85.67
64886;BME280;51514;52.206;5.114;2023-04-09T04:31:01;102581.06;;;10.43;85.61
64886;BME280;51514;52.206;5.114;2023-04-09T04:33:26;102591.09;;;10.41;85.40
64886;BME280;51514;52.206;5.114;2023-04-09T04:35:52;102580.09;;;10.44;85.35
64886;BME280;51514;52.206;5.114;2023-04-09T04:38:17;102580.94;;;10.45;85.44
64886;BME280;51514;52.206;5.114;2023-04-09T04:40:42;102588.06;;;10.46;85.28
64886;BME280;51514;52.206;5.114;2023-04-09T04:43:08;102589.41;;;10.51;85.59
64886;BME280;51514;52.206;5.114;2023-04-09T04:45:33;102590.16;;;10.53;85.39
64886;BME280;51514;52.206;5.114;2023-04-09T04:47:58;102593.63;;;10.55;85.30
64886;BME280;51514;52.206;5.114;2023-04-09T04:50:24;102583.81;;;10.54;85.42
64886;BME280;51514;52.206;5.114;2023-04-09T04:52:49;102593.22;;;10.49;85.38
64886;BME280;51514;52.206;5.114;2023-04-09T04:55:14;102583.63;;;10.45;85.42
64886;BME280;51514;52.206;5.114;2023-04-09T04:57:40;102593.44;;;10.46;85.31
64886;BME280;51514;52.206;5.114;2023-04-09T05:00:06;102597.88;;;10.47;85.12
64886;BME280;51514;52.206;5.114;2023-04-09T05:02:31;102597.50;;;10.51;85.17
64886;BME280;51514;52.206;5.114;2023-04-09T05:04:57;102589.19;;;10.54;84.99
64886;BME280;51514;52.206;5.114;2023-04-09T05:07:22;102589.31;;;10.53;84.94
64886;BME280;51514;52.206;5.114;2023-04-09T05:09:47;102589.53;;;10.50;85.13
64886;BME280;51514;52.206;5.114;2023-04-09T05:12:12;102594.06;;;10.49;85.15
64886;BME280;51514;52.206;5.114;2023-04-09T05:14:39;102591.38;;;10.49;85.19
64886;BME280;51514;52.206;5.114;2023-04-09T05:17:04;102589.41;;;10.51;85.35
64886;BME280;51514;52.206;5.114;2023-04-09T05:19:30;102593.41;;;10.58;85.55
64886;BME280;51514;52.206;5.114;2023-04-09T05:21:55;102593.88;;;10.64;85.10
64886;BME280;51514;52.206;5.114;2023-04-09T05:24:21;102590.44;;;10.61;84.70
64886;BME280;51514;52.206;5.114;2023-04-09T05:26:46;102595.34;;;10.56;84.31
64886;BME280;51514;52.206;5.114;2023-04-09T05:29:12;102603.31;;;10.58;84.68
64886;BME280;51514;52.206;5.114;2023-04-09T05:31:37;102608.47;;;10.61;84.71
64886;BME280;51514;52.206;5.114;2023-04-09T05:34:04;102604.19;;;10.58;84.79
64886;BME280;51514;52.206;5.114;2023-04-09T05:36:30;102608.59;;;10.59;84.96
64886;BME280;51514;52.206;5.114;2023-04-09T05:38:56;102607.38;;;10.64;84.78
64886;BME280;51514;52.206;5.114;2023-04-09T05:41:21;102605.44;;;10.66;84.95
64886;BME280;51514;52.206;5.114;2023-04-09T05:43:47;102605.81;;;10.72;84.79
64886;BME280;51514;52.206;5.114;2023-04-09T05:46:12;102614.66;;;10.74;84.71
64886;BME280;51514;52.206;5.114;2023-04-09T05:48:37;102608.66;;;10.71;84.36
64886;BME280;51514;52.206;5.114;2023-04-09T05:51:03;102604.94;;;10.72;84.04
64886;BME280;51514;52.206;5.114;2023-04-09T05:53:28;102601.53;;;10.70;83.55
64886;BME280;51514;52.206;5.114;2023-04-09T05:55:55;102609.25;;;10.74;83.36
64886;BME280;51514;52.206;5.114;2023-04-09T05:58:20;102603.88;;;10.74;83.37
64886;BME280;51514;52.206;5.114;2023-04-09T06:00:46;102604.72;;;10.75;82.96
64886;BME280;51514;52.206;5.114;2023-04-09T06:03:11;102609.75;;;10.68;82.50
64886;BME280;51514;52.206;5.114;2023-04-09T06:05:36;102609.84;;;10.67;82.73
64886;BME280;51514;52.206;5.114;2023-04-09T06:08:02;102610.59;;;10.69;82.91
64886;BME280;51514;52.206;5.114;2023-04-09T06:10:27;102616.59;;;10.72;83.00
64886;BME280;51514;52.206;5.114;2023-04-09T06:12:53;102618.00;;;10.78;82.99
64886;BME280;51514;52.206;5.114;2023-04-09T06:15:19;102613.47;;;10.78;83.54
64886;BME280;51514;52.206;5.114;2023-04-09T06:17:44;102618.75;;;10.80;82.39
64886;BME280;51514;52.206;5.114;2023-04-09T06:20:10;102621.19;;;10.83;82.49
64886;BME280;51514;52.206;5.114;2023-04-09T06:22:35;102617.25;;;10.76;82.40
64886;BME280;51514;52.206;5.114;2023-04-09T06:25:01;102617.25;;;10.76;82.48
64886;BME280;51514;52.206;5.114;2023-04-09T06:27:26;102625.44;;;10.74;82.64
64886;BME280;51514;52.206;5.114;2023-04-09T06:29:52;102628.16;;;10.74;82.79
64886;BME280;51514;52.206;5.114;2023-04-09T06:32:17;102628.03;;;10.76;82.48
64886;BME280;51514;52.206;5.114;2023-04-09T06:34:42;102629.66;;;10.78;82.63
64886;BME280;51514;52.206;5.114;2023-04-09T06:37:08;102623.03;;;10.82;82.71
64886;BME280;51514;52.206;5.114;2023-04-09T06:39:33;102626.47;;;10.84;82.37
64886;BME280;51514;52.206;5.114;2023-04-09T06:41:58;102626.34;;;10.86;82.18
64886;BME280;51514;52.206;5.114;2023-04-09T06:44:24;102625.28;;;10.88;81.90
64886;BME280;51514;52.206;5.114;2023-04-09T06:46:49;102624.19;;;10.91;82.13
64886;BME280;51514;52.206;5.114;2023-04-09T06:49:15;102620.25;;;10.95;82.43
64886;BME280;51514;52.206;5.114;2023-04-09T06:51:40;102624.44;;;10.99;82.16
64886;BME280;51514;52.206;5.114;2023-04-09T06:54:06;102626.41;;;10.97;81.61
64886;BME280;51514;52.206;5.114;2023-04-09T06:56:32;102634.50;;;10.97;81.71
64886;BME280;51514;52.206;5.114;2023-04-09T06:58:58;102630.06;;;10.96;81.61
64886;BME280;51514;52.206;5.114;2023-04-09T07:01:24;102630.06;;;10.96;81.77
64886;BME280;51514;52.206;5.114;2023-04-09T07:03:50;102622.72;;;10.98;81.62
64886;BME280;51514;52.206;5.114;2023-04-09T07:06:15;102626.41;;;10.97;81.13
64886;BME280;51514;52.206;5.114;2023-04-09T07:08:41;102634.50;;;10.97;81.30
64886;BME280;51514;52.206;5.114;2023-04-09T07:11:06;102629.22;;;10.95;81.83
64886;BME280;51514;52.206;5.114;2023-04-09T07:13:31;102638.28;;;10.94;81.47
64886;BME280;51514;52.206;5.114;2023-04-09T07:15:57;102638.16;;;10.96;81.62
64886;BME280;51514;52.206;5.114;2023-04-09T07:18:22;102638.16;;;10.96;81.19
64886;BME280;51514;52.206;5.114;2023-04-09T07:20:47;102636.22;;;10.98;80.80
64886;BME280;51514;52.206;5.114;2023-04-09T07:23:13;102636.00;;;11.01;80.97
64886;BME280;51514;52.206;5.114;2023-04-09T07:25:38;102629.84;;;10.99;80.83
64886;BME280;51514;52.206;5.114;2023-04-09T07:28:03;102635.25;;;10.99;80.44
64886;BME280;51514;52.206;5.114;2023-04-09T07:30:29;102638.69;;;11.01;80.34
64886;BME280;51514;52.206;5.114;2023-04-09T07:32:54;102641.13;;;11.04;80.60
64886;BME280;51514;52.206;5.114;2023-04-09T07:35:20;102636.38;;;11.08;81.03
64886;BME280;51514;52.206;5.114;2023-04-09T07:37:45;102631.84;;;11.08;80.74
64886;BME280;51514;52.206;5.114;2023-04-09T07:40:11;102641.03;;;11.06;80.64
64886;BME280;51514;52.206;5.114;2023-04-09T07:42:39;102638.44;;;11.04;81.04
64886;BME280;51514;52.206;5.114;2023-04-09T07:45:05;102641.63;;;10.98;81.08
64886;BME280;51514;52.206;5.114;2023-04-09T07:47:31;102636.81;;;10.90;80.01
64886;BME280;51514;52.206;5.114;2023-04-09T07:49:57;102640.13;;;10.94;80.01
64886;BME280;51514;52.206;5.114;2023-04-09T07:52:22;102624.28;;;10.89;79.28
64886;BME280;51514;52.206;5.114;2023-04-09T07:54:48;102632.28;;;10.91;78.90
64886;BME280;51514;52.206;5.114;2023-04-09T07:57:13;102636.22;;;10.98;78.71
64886;BME280;51514;52.206;5.114;2023-04-09T07:59:38;102627.53;;;11.06;78.43
64886;BME280;51514;52.206;5.114;2023-04-09T08:02:04;102624.38;;;11.12;76.96
64886;BME280;51514;52.206;5.114;2023-04-09T08:04:30;102627.56;;;11.17;76.87
64886;BME280;51514;52.206;5.114;2023-04-09T08:06:55;102631.75;;;11.21;77.42
64886;BME280;51514;52.206;5.114;2023-04-09T08:09:21;102637.78;;;11.24;77.29
64886;BME280;51514;52.206;5.114;2023-04-09T08:11:48;102633.22;;;11.25;76.24
64886;BME280;51514;52.206;5.114;2023-04-09T08:14:14;102640.09;;;11.29;77.05
64886;BME280;51514;52.206;5.114;2023-04-09T08:16:42;102626.25;;;11.33;76.91
64886;BME280;51514;52.206;5.114;2023-04-09T08:19:08;102636.19;;;11.33;76.74
64886;BME280;51514;52.206;5.114;2023-04-09T08:21:35;102630.28;;;11.39;77.18
64886;BME280;51514;52.206;5.114;2023-04-09T08:24:00;102633.94;;;11.27;77.39
64886;BME280;51514;52.206;5.114;2023-04-09T08:26:29;102634.81;;;11.27;76.83
64886;BME280;51514;52.206;5.114;2023-04-09T08:28:54;102633.63;;;11.31;77.09
64886;BME280;51514;52.206;5.114;2023-04-09T08:31:19;102623.19;;;11.38;76.74
64886;BME280;51514;52.206;5.114;2023-04-09T08:33:45;102621.97;;;11.42;76.85
64886;BME280;51514;52.206;5.114;2023-04-09T08:36:11;102631.41;;;11.48;76.79
64886;BME280;51514;52.206;5.114;2023-04-09T08:38:36;102622.97;;;11.52;77.03
64886;BME280;51514;52.206;5.114;2023-04-09T08:41:02;102630.09;;;11.53;76.36
64886;BME280;51514;52.206;5.114;2023-04-09T08:43:27;102626.75;;;11.50;76.07
64886;BME280;51514;52.206;5.114;2023-04-09T08:45:54;102625.78;;;11.51;76.56
64886;BME280;51514;52.206;5.114;2023-04-09T08:48:23;102624.56;;;11.55;76.14
64886;BME280;51514;52.206;5.114;2023-04-09T08:50:48;102626.13;;;11.57;76.27
64886;BME280;51514;52.206;5.114;2023-04-09T08:53:15;102621.75;;;11.67;76.27
64886;BME280;51514;52.206;5.114;2023-04-09T08:55:44;102623.59;;;11.56;76.43
64886;BME280;51514;52.206;5.114;2023-04-09T08:58:10;102618.31;;;11.65;76.18
64886;BME280;51514;52.206;5.114;2023-04-09T09:00:36;102618.22;;;11.78;75.92
64886;BME280;51514;52.206;5.114;2023-04-09T09:03:06;102612.44;;;11.83;75.39
64886;BME280;51514;52.206;5.114;2023-04-09T09:05:37;102611.56;;;11.93;75.10
64886;BME280;51514;52.206;5.114;2023-04-09T09:08:03;102609.59;;;12.06;75.35
64886;BME280;51514;52.206;5.114;2023-04-09T09:10:48;102613.34;;;12.26;74.61
64886;BME280;51514;52.206;5.114;2023-04-09T09:13:25;102610.00;;;12.34;73.53
64886;BME280;51514;52.206;5.114;2023-04-09T09:15:52;102610.00;;;12.34;72.80
64886;BME280;51514;52.206;5.114;2023-04-09T09:18:40;102613.81;;;12.42;72.69
64886;BME280;51514;52.206;5.114;2023-04-09T09:21:14;102614.41;;;12.46;71.83
64886;BME280;51514;52.206;5.114;2023-04-09T09:23:40;102603.06;;;12.52;71.82
64886;BME280;51514;52.206;5.114;2023-04-09T09:26:14;102604.88;;;12.63;71.02
64886;BME280;51514;52.206;5.114;2023-04-09T09:28:40;102596.59;;;12.75;70.32
64886;BME280;51514;52.206;5.114;2023-04-09T09:31:10;102598.41;;;13.07;69.38
64886;BME280;51514;52.206;5.114;2023-04-09T09:33:36;102591.50;;;13.44;68.17
64886;BME280;51514;52.206;5.114;2023-04-09T09:36:01;102597.56;;;13.58;67.49
64886;BME280;51514;52.206;5.114;2023-04-09T09:38:28;102582.34;;;13.66;67.60
64886;BME280;51514;52.206;5.114;2023-04-09T09:40:53;102586.28;;;13.93;67.31
64886;BME280;51514;52.206;5.114;2023-04-09T09:43:19;102591.38;;;14.36;67.48
64886;BME280;51514;52.206;5.114;2023-04-09T09:45:46;102591.78;;;14.31;63.86
64886;BME280;51514;52.206;5.114;2023-04-09T09:48:11;102589.47;;;14.07;63.05
64886;BME280;51514;52.206;5.114;2023-04-09T09:50:38;102583.44;;;13.94;64.08
64886;BME280;51514;52.206;5.114;2023-04-09T09:53:09;102580.88;;;13.93;63.95
64886;BME280;51514;52.206;5.114;2023-04-09T09:55:40;102582.31;;;14.06;63.92
64886;BME280;51514;52.206;5.114;2023-04-09T09:58:20;102575.00;;;14.47;63.42
64886;BME280;51514;52.206;5.114;2023-04-09T10:00:48;102580.69;;;14.82;64.25
64886;BME280;51514;52.206;5.114;2023-04-09T10:03:26;102577.84;;;15.03;63.94
64886;BME280;51514;52.206;5.114;2023-04-09T10:05:52;102575.38;;;15.10;62.88
64886;BME280;51514;52.206;5.114;2023-04-09T10:08:19;102568.66;;;15.14;62.57
64886;BME280;51514;52.206;5.114;2023-04-09T10:10:45;102563.56;;;15.38;61.00
64886;BME280;51514;52.206;5.114;2023-04-09T10:13:18;102558.13;;;15.57;61.97
64886;BME280;51514;52.206;5.114;2023-04-09T10:15:46;102553.59;;;15.76;60.38
64886;BME280;51514;52.206;5.114;2023-04-09T10:18:11;102554.47;;;15.94;60.47
64886;BME280;51514;52.206;5.114;2023-04-09T10:20:58;102551.97;;;16.10;59.26
64886;BME280;51514;52.206;5.114;2023-04-09T10:23:33;102543.41;;;16.23;58.06
64886;BME280;51514;52.206;5.114;2023-04-09T10:26:00;102541.94;;;16.11;58.01
64886;BME280;51514;52.206;5.114;2023-04-09T10:28:25;102529.19;;;16.29;58.96
64886;BME280;51514;52.206;5.114;2023-04-09T10:30:52;102529.03;;;16.30;56.65
64886;BME280;51514;52.206;5.114;2023-04-09T10:33:21;102524.81;;;16.36;56.66
64886;BME280;51514;52.206;5.114;2023-04-09T10:35:51;102531.13;;;16.36;57.69
64886;BME280;51514;52.206;5.114;2023-04-09T10:41:13;102522.88;;;16.28;56.13
64886;BME280;51514;52.206;5.114;2023-04-09T10:43:40;102516.50;;;16.20;57.05
64886;BME280;51514;52.206;5.114;2023-04-09T10:46:07;102516.66;;;16.18;58.04
64886;BME280;51514;52.206;5.114;2023-04-09T10:48:34;102519.84;;;16.14;57.31
64886;BME280;51514;52.206;5.114;2023-04-09T10:51:02;102516.81;;;15.99;57.44
64886;BME280;51514;52.206;5.114;2023-04-09T10:53:31;102518.09;;;15.95;57.85
64886;BME280;51514;52.206;5.114;2023-04-09T10:55:56;102517.25;;;15.94;58.47
64886;BME280;51514;52.206;5.114;2023-04-09T10:58:21;102510.44;;;16.08;59.15
64886;BME280;51514;52.206;5.114;2023-04-09T11:00:49;102513.69;;;16.12;59.38
64886;BME280;51514;52.206;5.114;2023-04-09T11:03:28;102508.34;;;16.20;57.78
64886;BME280;51514;52.206;5.114;2023-04-09T11:08:29;102507.00;;;16.06;56.22
64886;BME280;51514;52.206;5.114;2023-04-09T11:10:55;102502.88;;;16.02;57.86
64886;BME280;51514;52.206;5.114;2023-04-09T11:13:23;102499.91;;;15.95;57.94
64886;BME280;51514;52.206;5.114;2023-04-09T11:15:49;102499.13;;;16.03;59.66
64886;BME280;51514;52.206;5.114;2023-04-09T11:18:19;102494.88;;;16.18;60.41
64886;BME280;51514;52.206;5.114;2023-04-09T11:20:45;102492.63;;;16.49;58.71
64886;BME280;51514;52.206;5.114;2023-04-09T11:23:12;102487.56;;;16.72;58.66
64886;BME280;51514;52.206;5.114;2023-04-09T11:25:37;102482.00;;;16.82;58.46
64886;BME280;51514;52.206;5.114;2023-04-09T11:28:03;102479.59;;;17.04;57.94
64886;BME280;51514;52.206;5.114;2023-04-09T11:30:29;102479.88;;;17.19;56.51
64886;BME280;51514;52.206;5.114;2023-04-09T11:32:55;102476.94;;;17.21;54.87
64886;BME280;51514;52.206;5.114;2023-04-09T11:35:21;102482.16;;;17.06;55.69
64886;BME280;51514;52.206;5.114;2023-04-09T11:37:48;102484.06;;;17.13;55.25
64886;BME280;51514;52.206;5.114;2023-04-09T11:40:16;102472.59;;;17.02;55.70
64886;BME280;51514;52.206;5.114;2023-04-09T11:42:42;102477.81;;;16.69;55.58
64886;BME280;51514;52.206;5.114;2023-04-09T11:45:09;102484.13;;;16.70;55.81
64886;BME280;51514;52.206;5.114;2023-04-09T11:47:35;102483.16;;;16.79;56.54
64886;BME280;51514;52.206;5.114;2023-04-09T11:50:01;102476.13;;;16.68;55.06
64886;BME280;51514;52.206;5.114;2023-04-09T11:52:27;102474.81;;;16.55;55.65
64886;BME280;51514;52.206;5.114;2023-04-09T11:54:58;102465.47;;;16.39;56.52
64886;BME280;51514;52.206;5.114;2023-04-09T11:57:44;102460.41;;;16.44;55.95
64886;BME280;51514;52.206;5.114;2023-04-09T12:00:13;102459.19;;;16.39;55.06
64886;BME280;51514;52.206;5.114;2023-04-09T12:02:44;102456.59;;;16.37;54.06
64886;BME280;51514;52.206;5.114;2023-04-09T12:05:24;102454.03;;;16.54;57.39
64886;BME280;51514;52.206;5.114;2023-04-09T12:07:51;102456.53;;;16.65;56.99
64886;BME280;51514;52.206;5.114;2023-04-09T12:10:17;102451.88;;;16.83;56.27
64886;BME280;51514;52.206;5.114;2023-04-09T12:12:46;102451.09;;;16.99;56.54
64886;BME280;51514;52.206;5.114;2023-04-09T12:15:19;102455.50;;;17.18;55.52
64886;BME280;51514;52.206;5.114;2023-04-09T12:17:54;102454.91;;;17.40;57.13
64886;BME280;51514;52.206;5.114;2023-04-09T12:20:39;102459.88;;;17.52;54.79
64886;BME280;51514;52.206;5.114;2023-04-09T12:23:06;102452.50;;;17.71;54.10
64886;BME280;51514;52.206;5.114;2023-04-09T12:25:37;102464.97;;;17.73;51.75
64886;BME280;51514;52.206;5.114;2023-04-09T12:28:04;102455.22;;;17.71;50.87
64886;BME280;51514;52.206;5.114;2023-04-09T12:30:30;102462.88;;;17.67;51.53
64886;BME280;51514;52.206;5.114;2023-04-09T12:32:57;102462.88;;;17.75;52.09
64886;BME280;51514;52.206;5.114;2023-04-09T12:35:23;102452.03;;;17.92;51.87
64886;BME280;51514;52.206;5.114;2023-04-09T12:37:49;102453.75;;;18.01;49.89
64886;BME280;51514;52.206;5.114;2023-04-09T12:40:14;102450.00;;;18.02;50.87
64886;BME280;51514;52.206;5.114;2023-04-09T12:42:40;102450.16;;;18.08;50.99
64886;BME280;51514;52.206;5.114;2023-04-09T12:45:08;102458.88;;;18.20;51.13
64886;BME280;51514;52.206;5.114;2023-04-09T12:47:33;102455.47;;;18.26;51.06
64886;BME280;51514;52.206;5.114;2023-04-09T12:49:59;102450.88;;;18.27;48.96
64886;BME280;51514;52.206;5.114;2023-04-09T12:52:24;102454.28;;;18.20;48.70
64886;BME280;51514;52.206;5.114;2023-04-09T12:54:51;102445.22;;;18.04;50.14
64886;BME280;51514;52.206;5.114;2023-04-09T12:57:16;102447.59;;;18.07;50.49
64886;BME280;51514;52.206;5.114;2023-04-09T12:59:42;102443.69;;;18.09;49.75
64886;BME280;51514;52.206;5.114;2023-04-09T13:02:07;102450.31;;;17.99;47.84
64886;BME280;51514;52.206;5.114;2023-04-09T13:04:32;102442.47;;;17.96;48.61
64886;BME280;51514;52.206;5.114;2023-04-09T13:06:58;102446.41;;;18.01;49.74